sensor_id;sensor_type;location;lat;lon;timestamp;P1;durP1;ratioP1;P2;durP2;ratioP2
21955;SDS011;11142;49.930;8.606;2024-03-23T00:53:42;27.35;;;14.23;;
21955;SDS011;11142;49.930;8.606;2024-03-23T00:56:10;23.27;;;13.27;;
21955;SDS011;11142;49.930;8.606;2024-03-23T00:58:38;26.65;;;14.00;;
21955;SDS011;11142;49.930;8.606;2024-03-23T01:01:04;25.52;;;14.43;;
21955;SDS011;11142;49.930;8.606;2024-03-23T01:03:32;26.23;;;13.13;;
21955;SDS011;11142;49.930;8.606;2024-03-23T01:05:59;24.27;;;13.98;;
21955;SDS011;11142;49.930;8.606;2024-03-23T01:08:26;27.27;;;14.48;;
21955;SDS011;11142;49.930;8.606;2024-03-23T01:10:57;25.58;;;13.82;;
21955;SDS011;11142;49.930;8.606;2024-03-23T01:13:25;25.42;;;14.02;;
21955;SDS011;11142;49.930;8.606;2024-03-23T01:15:52;25.88;;;13.77;;
21955;SDS011;11142;49.930;8.606;2024-03-23T01:18:20;23.42;;;12.88;;
21955;SDS011;11142;49.930;8.606;2024-03-23T01:20:48;25.85;;;12.95;;
21955;SDS011;11142;49.930;8.606;2024-03-23T01:23:15;24.08;;;13.90;;
21955;SDS011;11142;49.930;8.606;2024-03-23T01:25:41;21.98;;;13.75;;
21955;SDS011;11142;49.930;8.606;2024-03-23T01:28:10;21.77;;;12.93;;
21955;SDS011;11142;49.930;8.606;2024-03-23T01:30:36;25.25;;;13.02;;
21955;SDS011;11142;49.930;8.606;2024-03-23T01:33:05;22.33;;;12.70;;
21955;SDS011;11142;49.930;8.606;2024-03-23T01:35:31;24.05;;;13.10;;
21955;SDS011;11142;49.930;8.606;2024-03-23T01:37:58;23.58;;;12.25;;
21955;SDS011;11142;49.930;8.606;2024-03-23T01:40:24;24.73;;;12.65;;
21955;SDS011;11142;49.930;8.606;2024-03-23T01:42:56;21.40;;;12.13;;
21955;SDS011;11142;49.930;8.606;2024-03-23T01:45:23;20.63;;;11.65;;
21955;SDS011;11142;49.930;8.606;2024-03-23T01:47:51;21.80;;;11.52;;
21955;SDS011;11142;49.930;8.606;2024-03-23T01:50:19;20.42;;;10.95;;
21955;SDS011;11142;49.930;8.606;2024-03-23T01:52:48;20.67;;;10.93;;
21955;SDS011;11142;49.930;8.606;2024-03-23T01:55:14;23.83;;;12.02;;
21955;SDS011;11142;49.930;8.606;2024-03-23T01:57:42;26.35;;;11.65;;
21955;SDS011;11142;49.930;8.606;2024-03-23T02:00:09;19.38;;;10.32;;
21955;SDS011;11142;49.930;8.606;2024-03-23T02:02:42;19.65;;;10.93;;
21955;SDS011;11142;49.930;8.606;2024-03-23T02:05:10;20.40;;;12.03;;
21955;SDS011;11142;49.930;8.606;2024-03-23T02:07:39;19.40;;;11.18;;
21955;SDS011;11142;49.930;8.606;2024-03-23T02:10:07;19.25;;;11.15;;
21955;SDS011;11142;49.930;8.606;2024-03-23T02:12:36;20.38;;;11.88;;
21955;SDS011;11142;49.930;8.606;2024-03-23T02:15:02;20.50;;;12.13;;
21955;SDS011;11142;49.930;8.606;2024-03-23T02:17:30;22.88;;;12.38;;
21955;SDS011;11142;49.930;8.606;2024-03-23T02:20:00;21.77;;;13.38;;
21955;SDS011;11142;49.930;8.606;2024-03-23T02:22:34;23.02;;;12.82;;
21955;SDS011;11142;49.930;8.606;2024-03-23T02:25:03;24.50;;;13.88;;
21955;SDS011;11142;49.930;8.606;2024-03-23T02:27:32;20.88;;;12.70;;
21955;SDS011;11142;49.930;8.606;2024-03-23T02:29:58;23.90;;;13.80;;
21955;SDS011;11142;49.930;8.606;2024-03-23T02:32:27;21.13;;;12.90;;
21955;SDS011;11142;49.930;8.606;2024-03-23T02:34:53;21.80;;;13.75;;
21955;SDS011;11142;49.930;8.606;2024-03-23T02:37:20;25.23;;;13.07;;
21955;SDS011;11142;49.930;8.606;2024-03-23T02:39:46;21.50;;;12.05;;
21955;SDS011;11142;49.930;8.606;2024-03-23T02:42:14;21.25;;;12.55;;
21955;SDS011;11142;49.930;8.606;2024-03-23T02:44:43;23.65;;;13.30;;
21955;SDS011;11142;49.930;8.606;2024-03-23T02:47:10;22.73;;;13.10;;
21955;SDS011;11142;49.930;8.606;2024-03-23T02:49:36;24.00;;;12.70;;
21955;SDS011;11142;49.930;8.606;2024-03-23T02:52:05;21.58;;;12.55;;
21955;SDS011;11142;49.930;8.606;2024-03-23T02:54:31;21.45;;;12.63;;
21955;SDS011;11142;49.930;8.606;2024-03-23T02:56:58;27.25;;;13.82;;
21955;SDS011;11142;49.930;8.606;2024-03-23T02:59:25;21.70;;;13.00;;
21955;SDS011;11142;49.930;8.606;2024-03-23T03:01:52;26.38;;;15.23;;
21955;SDS011;11142;49.930;8.606;2024-03-23T03:04:18;26.40;;;13.82;;
21955;SDS011;11142;49.930;8.606;2024-03-23T03:06:46;24.33;;;13.48;;
21955;SDS011;11142;49.930;8.606;2024-03-23T03:09:12;24.00;;;13.73;;
21955;SDS011;11142;49.930;8.606;2024-03-23T03:11:39;28.63;;;14.75;;
21955;SDS011;11142;49.930;8.606;2024-03-23T03:14:05;24.30;;;13.98;;
21955;SDS011;11142;49.930;8.606;2024-03-23T03:16:34;24.52;;;14.38;;
21955;SDS011;11142;49.930;8.606;2024-03-23T03:19:00;25.23;;;14.45;;
21955;SDS011;11142;49.930;8.606;2024-03-23T03:21:27;26.63;;;14.00;;
21955;SDS011;11142;49.930;8.606;2024-03-23T03:23:54;22.73;;;13.23;;
21955;SDS011;11142;49.930;8.606;2024-03-23T03:26:23;26.92;;;14.88;;
21955;SDS011;11142;49.930;8.606;2024-03-23T03:28:49;27.73;;;15.40;;
21955;SDS011;11142;49.930;8.606;2024-03-23T03:31:17;21.38;;;13.38;;
21955;SDS011;11142;49.930;8.606;2024-03-23T03:33:45;26.45;;;14.68;;
21955;SDS011;11142;49.930;8.606;2024-03-23T03:36:12;27.67;;;14.98;;
21955;SDS011;11142;49.930;8.606;2024-03-23T03:38:38;21.92;;;13.55;;
21955;SDS011;11142;49.930;8.606;2024-03-23T03:41:05;24.73;;;13.90;;
21955;SDS011;11142;49.930;8.606;2024-03-23T03:43:32;23.88;;;13.23;;
21955;SDS011;11142;49.930;8.606;2024-03-23T03:46:00;27.77;;;14.18;;
21955;SDS011;11142;49.930;8.606;2024-03-23T03:48:26;24.65;;;13.85;;
21955;SDS011;11142;49.930;8.606;2024-03-23T03:50:55;27.75;;;14.82;;
21955;SDS011;11142;49.930;8.606;2024-03-23T03:53:21;31.60;;;14.75;;
21955;SDS011;11142;49.930;8.606;2024-03-23T03:55:48;26.35;;;14.60;;
21955;SDS011;11142;49.930;8.606;2024-03-23T03:58:14;28.15;;;15.25;;
21955;SDS011;11142;49.930;8.606;2024-03-23T04:00:42;27.15;;;15.20;;
21955;SDS011;11142;49.930;8.606;2024-03-23T04:03:09;25.02;;;14.55;;
21955;SDS011;11142;49.930;8.606;2024-03-23T04:05:36;26.85;;;13.48;;
21955;SDS011;11142;49.930;8.606;2024-03-23T04:08:04;28.15;;;14.50;;
21955;SDS011;11142;49.930;8.606;2024-03-23T04:10:32;26.15;;;14.30;;
21955;SDS011;11142;49.930;8.606;2024-03-23T04:12:59;27.45;;;14.65;;
21955;SDS011;11142;49.930;8.606;2024-03-23T04:15:26;25.98;;;13.77;;
21955;SDS011;11142;49.930;8.606;2024-03-23T04:17:52;33.95;;;14.25;;
21955;SDS011;11142;49.930;8.606;2024-03-23T04:20:20;23.65;;;11.75;;
21955;SDS011;11142;49.930;8.606;2024-03-23T04:22:47;18.58;;;10.10;;
21955;SDS011;11142;49.930;8.606;2024-03-23T04:25:14;23.73;;;10.13;;
21955;SDS011;11142;49.930;8.606;2024-03-23T04:27:45;21.75;;;9.63;;
21955;SDS011;11142;49.930;8.606;2024-03-23T04:30:12;18.55;;;9.82;;
21955;SDS011;11142;49.930;8.606;2024-03-23T04:32:41;40.58;;;15.35;;
21955;SDS011;11142;49.930;8.606;2024-03-23T04:35:07;38.22;;;13.75;;
21955;SDS011;11142;49.930;8.606;2024-03-23T04:37:36;25.60;;;12.73;;
21955;SDS011;11142;49.930;8.606;2024-03-23T04:40:04;19.52;;;9.48;;
21955;SDS011;11142;49.930;8.606;2024-03-23T04:42:34;10.27;;;5.30;;
21955;SDS011;11142;49.930;8.606;2024-03-23T04:45:01;7.43;;;3.53;;
21955;SDS011;11142;49.930;8.606;2024-03-23T04:47:29;6.30;;;2.90;;
21955;SDS011;11142;49.930;8.606;2024-03-23T04:49:55;4.43;;;2.72;;
21955;SDS011;11142;49.930;8.606;2024-03-23T04:52:22;5.45;;;2.78;;
21955;SDS011;11142;49.930;8.606;2024-03-23T04:54:49;5.78;;;2.72;;
21955;SDS011;11142;49.930;8.606;2024-03-23T04:57:17;5.38;;;2.80;;
21955;SDS011;11142;49.930;8.606;2024-03-23T04:59:47;5.57;;;3.22;;
21955;SDS011;11142;49.930;8.606;2024-03-23T05:02:15;7.22;;;2.40;;
21955;SDS011;11142;49.930;8.606;2024-03-23T05:04:41;5.18;;;2.05;;
21955;SDS011;11142;49.930;8.606;2024-03-23T05:07:09;5.50;;;2.40;;
21955;SDS011;11142;49.930;8.606;2024-03-23T05:09:35;3.05;;;1.67;;
21955;SDS011;11142;49.930;8.606;2024-03-23T05:12:02;1.95;;;1.15;;
21955;SDS011;11142;49.930;8.606;2024-03-23T05:14:29;4.97;;;1.70;;
21955;SDS011;11142;49.930;8.606;2024-03-23T05:16:59;3.30;;;0.45;;
21955;SDS011;11142;49.930;8.606;2024-03-23T05:19:25;2.30;;;1.45;;
21955;SDS011;11142;49.930;8.606;2024-03-23T05:21:54;1.83;;;1.05;;
21955;SDS011;11142;49.930;8.606;2024-03-23T05:24:20;1.63;;;0.98;;
21955;SDS011;11142;49.930;8.606;2024-03-23T05:26:47;1.58;;;1.30;;
21955;SDS011;11142;49.930;8.606;2024-03-23T05:29:13;2.55;;;1.30;;
21955;SDS011;11142;49.930;8.606;2024-03-23T05:31:42;1.77;;;1.30;;
21955;SDS011;11142;49.930;8.606;2024-03-23T05:34:10;1.23;;;0.82;;
21955;SDS011;11142;49.930;8.606;2024-03-23T05:36:37;2.95;;;1.30;;
21955;SDS011;11142;49.930;8.606;2024-03-23T05:39:03;2.78;;;1.52;;
21955;SDS011;11142;49.930;8.606;2024-03-23T05:41:30;2.03;;;1.40;;
21955;SDS011;11142;49.930;8.606;2024-03-23T05:43:56;3.83;;;1.83;;
21955;SDS011;11142;49.930;8.606;2024-03-23T05:46:26;1.75;;;1.45;;
21955;SDS011;11142;49.930;8.606;2024-03-23T05:48:52;1.60;;;1.40;;
21955;SDS011;11142;49.930;8.606;2024-03-23T05:51:26;3.95;;;2.33;;
21955;SDS011;11142;49.930;8.606;2024-03-23T05:53:52;1.42;;;0.98;;
21955;SDS011;11142;49.930;8.606;2024-03-23T05:56:19;6.53;;;2.72;;
21955;SDS011;11142;49.930;8.606;2024-03-23T05:58:46;2.42;;;1.48;;
21955;SDS011;11142;49.930;8.606;2024-03-23T06:01:13;2.50;;;1.60;;
21955;SDS011;11142;49.930;8.606;2024-03-23T06:03:40;2.40;;;2.13;;
21955;SDS011;11142;49.930;8.606;2024-03-23T06:06:09;3.00;;;2.10;;
21955;SDS011;11142;49.930;8.606;2024-03-23T06:08:38;2.75;;;1.55;;
21955;SDS011;11142;49.930;8.606;2024-03-23T06:11:05;2.00;;;1.25;;
21955;SDS011;11142;49.930;8.606;2024-03-23T06:13:32;2.67;;;1.35;;
21955;SDS011;11142;49.930;8.606;2024-03-23T06:15:59;1.65;;;1.05;;
21955;SDS011;11142;49.930;8.606;2024-03-23T06:18:25;2.22;;;1.55;;
21955;SDS011;11142;49.930;8.606;2024-03-23T06:20:53;1.00;;;0.70;;
21955;SDS011;11142;49.930;8.606;2024-03-23T06:23:19;0.90;;;0.70;;
21955;SDS011;11142;49.930;8.606;2024-03-23T06:25:47;1.27;;;1.08;;
21955;SDS011;11142;49.930;8.606;2024-03-23T06:28:14;1.55;;;0.93;;
21955;SDS011;11142;49.930;8.606;2024-03-23T06:30:41;1.20;;;1.10;;
21955;SDS011;11142;49.930;8.606;2024-03-23T06:33:08;0.55;;;0.55;;
21955;SDS011;11142;49.930;8.606;2024-03-23T06:35:35;0.98;;;0.88;;
21955;SDS011;11142;49.930;8.606;2024-03-23T06:38:01;0.82;;;0.73;;
21955;SDS011;11142;49.930;8.606;2024-03-23T06:40:28;0.93;;;0.93;;
21955;SDS011;11142;49.930;8.606;2024-03-23T06:42:56;0.90;;;0.77;;
21955;SDS011;11142;49.930;8.606;2024-03-23T06:45:26;1.00;;;0.60;;
21955;SDS011;11142;49.930;8.606;2024-03-23T06:47:52;0.32;;;0.32;;
21955;SDS011;11142;49.930;8.606;2024-03-23T06:50:21;1.58;;;0.82;;
21955;SDS011;11142;49.930;8.606;2024-03-23T06:52:52;0.70;;;0.50;;
21955;SDS011;11142;49.930;8.606;2024-03-23T06:55:18;0.95;;;0.57;;
21955;SDS011;11142;49.930;8.606;2024-03-23T06:57:45;0.43;;;0.43;;
21955;SDS011;11142;49.930;8.606;2024-03-23T07:00:14;5.15;;;1.00;;
21955;SDS011;11142;49.930;8.606;2024-03-23T07:02:41;2.35;;;0.63;;
21955;SDS011;11142;49.930;8.606;2024-03-23T07:05:07;3.08;;;0.50;;
21955;SDS011;11142;49.930;8.606;2024-03-23T07:07:34;2.08;;;0.63;;
21955;SDS011;11142;49.930;8.606;2024-03-23T07:10:01;2.38;;;0.93;;
21955;SDS011;11142;49.930;8.606;2024-03-23T07:12:28;1.20;;;0.80;;
21955;SDS011;11142;49.930;8.606;2024-03-23T07:14:54;5.20;;;1.40;;
21955;SDS011;11142;49.930;8.606;2024-03-23T07:17:23;1.50;;;0.82;;
21955;SDS011;11142;49.930;8.606;2024-03-23T07:19:49;5.07;;;1.20;;
21955;SDS011;11142;49.930;8.606;2024-03-23T07:22:17;0.52;;;0.43;;
21955;SDS011;11142;49.930;8.606;2024-03-23T07:24:44;1.98;;;1.30;;
21955;SDS011;11142;49.930;8.606;2024-03-23T07:27:11;2.53;;;1.42;;
21955;SDS011;11142;49.930;8.606;2024-03-23T07:29:37;2.65;;;1.00;;
21955;SDS011;11142;49.930;8.606;2024-03-23T07:32:04;4.72;;;1.45;;
21955;SDS011;11142;49.930;8.606;2024-03-23T07:34:32;3.85;;;1.48;;
21955;SDS011;11142;49.930;8.606;2024-03-23T07:36:59;2.40;;;1.13;;
21955;SDS011;11142;49.930;8.606;2024-03-23T07:39:26;4.00;;;1.38;;
21955;SDS011;11142;49.930;8.606;2024-03-23T07:41:54;4.20;;;1.20;;
21955;SDS011;11142;49.930;8.606;2024-03-23T07:44:20;4.53;;;1.33;;
21955;SDS011;11142;49.930;8.606;2024-03-23T07:46:47;7.15;;;1.45;;
21955;SDS011;11142;49.930;8.606;2024-03-23T07:49:14;7.18;;;1.13;;
21955;SDS011;11142;49.930;8.606;2024-03-23T07:51:42;1.52;;;1.30;;
21955;SDS011;11142;49.930;8.606;2024-03-23T07:54:10;5.07;;;1.40;;
21955;SDS011;11142;49.930;8.606;2024-03-23T07:56:37;3.78;;;1.10;;
21955;SDS011;11142;49.930;8.606;2024-03-23T07:59:03;5.25;;;1.60;;
21955;SDS011;11142;49.930;8.606;2024-03-23T08:01:30;1.50;;;1.05;;
21955;SDS011;11142;49.930;8.606;2024-03-23T08:03:55;3.65;;;1.45;;
21955;SDS011;11142;49.930;8.606;2024-03-23T08:06:23;4.38;;;1.58;;
21955;SDS011;11142;49.930;8.606;2024-03-23T08:08:51;4.78;;;2.20;;
21955;SDS011;11142;49.930;8.606;2024-03-23T08:11:25;3.30;;;1.98;;
21955;SDS011;11142;49.930;8.606;2024-03-23T08:13:51;6.68;;;2.63;;
21955;SDS011;11142;49.930;8.606;2024-03-23T08:16:19;6.18;;;2.75;;
21955;SDS011;11142;49.930;8.606;2024-03-23T08:18:46;2.83;;;1.63;;
21955;SDS011;11142;49.930;8.606;2024-03-23T08:21:12;6.55;;;2.47;;
21955;SDS011;11142;49.930;8.606;2024-03-23T08:23:45;7.85;;;2.80;;
21955;SDS011;11142;49.930;8.606;2024-03-23T08:26:15;3.95;;;2.05;;
21955;SDS011;11142;49.930;8.606;2024-03-23T08:28:43;3.80;;;2.90;;
21955;SDS011;11142;49.930;8.606;2024-03-23T08:31:10;4.97;;;2.28;;
21955;SDS011;11142;49.930;8.606;2024-03-23T08:33:38;6.28;;;2.25;;
21955;SDS011;11142;49.930;8.606;2024-03-23T08:36:05;7.43;;;2.80;;
21955;SDS011;11142;49.930;8.606;2024-03-23T08:38:33;8.50;;;2.83;;
21955;SDS011;11142;49.930;8.606;2024-03-23T08:41:00;6.82;;;3.22;;
21955;SDS011;11142;49.930;8.606;2024-03-23T08:43:30;2.58;;;1.33;;
21955;SDS011;11142;49.930;8.606;2024-03-23T08:46:03;3.08;;;1.88;;
21955;SDS011;11142;49.930;8.606;2024-03-23T08:48:31;6.70;;;3.40;;
21955;SDS011;11142;49.930;8.606;2024-03-23T08:51:01;7.97;;;3.35;;
21955;SDS011;11142;49.930;8.606;2024-03-23T08:53:28;5.25;;;2.00;;
21955;SDS011;11142;49.930;8.606;2024-03-23T08:55:55;6.82;;;3.10;;
21955;SDS011;11142;49.930;8.606;2024-03-23T08:58:23;4.85;;;2.50;;
21955;SDS011;11142;49.930;8.606;2024-03-23T09:00:52;10.95;;;2.30;;
21955;SDS011;11142;49.930;8.606;2024-03-23T09:03:22;8.43;;;4.10;;
21955;SDS011;11142;49.930;8.606;2024-03-23T09:05:48;13.55;;;3.28;;
21955;SDS011;11142;49.930;8.606;2024-03-23T09:08:17;5.03;;;2.08;;
21955;SDS011;11142;49.930;8.606;2024-03-23T09:10:43;9.68;;;1.58;;
21955;SDS011;11142;49.930;8.606;2024-03-23T09:13:12;9.18;;;2.60;;
21955;SDS011;11142;49.930;8.606;2024-03-23T09:15:45;7.57;;;2.28;;
21955;SDS011;11142;49.930;8.606;2024-03-23T09:18:18;7.20;;;3.47;;
21955;SDS011;11142;49.930;8.606;2024-03-23T09:20:44;9.85;;;3.70;;
21955;SDS011;11142;49.930;8.606;2024-03-23T09:23:12;11.00;;;3.40;;
21955;SDS011;11142;49.930;8.606;2024-03-23T09:25:38;4.40;;;2.30;;
21955;SDS011;11142;49.930;8.606;2024-03-23T09:28:08;7.13;;;3.38;;
21955;SDS011;11142;49.930;8.606;2024-03-23T09:30:34;10.70;;;3.08;;
21955;SDS011;11142;49.930;8.606;2024-03-23T09:35:37;8.77;;;3.63;;
21955;SDS011;11142;49.930;8.606;2024-03-23T09:38:04;12.75;;;3.92;;
21955;SDS011;11142;49.930;8.606;2024-03-23T09:40:32;11.85;;;3.28;;
21955;SDS011;11142;49.930;8.606;2024-03-23T09:43:00;8.73;;;3.38;;
21955;SDS011;11142;49.930;8.606;2024-03-23T09:45:27;5.90;;;2.47;;
21955;SDS011;11142;49.930;8.606;2024-03-23T09:47:54;10.73;;;3.00;;
21955;SDS011;11142;49.930;8.606;2024-03-23T09:50:21;6.28;;;2.70;;
21955;SDS011;11142;49.930;8.606;2024-03-23T09:52:50;9.15;;;2.55;;
21955;SDS011;11142;49.930;8.606;2024-03-23T09:55:18;4.85;;;2.40;;
21955;SDS011;11142;49.930;8.606;2024-03-23T09:57:45;2.78;;;1.40;;
21955;SDS011;11142;49.930;8.606;2024-03-23T10:00:12;7.53;;;2.42;;
21955;SDS011;11142;49.930;8.606;2024-03-23T10:02:40;7.72;;;2.42;;
21955;SDS011;11142;49.930;8.606;2024-03-23T10:05:17;3.78;;;1.80;;
21955;SDS011;11142;49.930;8.606;2024-03-23T10:07:47;10.60;;;2.17;;
21955;SDS011;11142;49.930;8.606;2024-03-23T10:10:15;3.63;;;2.22;;
21955;SDS011;11142;49.930;8.606;2024-03-23T10:12:46;7.38;;;2.03;;
21955;SDS011;11142;49.930;8.606;2024-03-23T10:15:20;6.00;;;2.13;;
21955;SDS011;11142;49.930;8.606;2024-03-23T10:17:48;4.43;;;2.28;;
21955;SDS011;11142;49.930;8.606;2024-03-23T10:20:18;4.85;;;1.95;;
21955;SDS011;11142;49.930;8.606;2024-03-23T10:22:53;5.20;;;2.20;;
21955;SDS011;11142;49.930;8.606;2024-03-23T10:25:23;5.53;;;1.90;;
21955;SDS011;11142;49.930;8.606;2024-03-23T10:27:57;5.18;;;2.42;;
21955;SDS011;11142;49.930;8.606;2024-03-23T10:30:25;4.25;;;1.88;;
21955;SDS011;11142;49.930;8.606;2024-03-23T10:32:56;8.00;;;2.20;;
21955;SDS011;11142;49.930;8.606;2024-03-23T10:35:33;9.27;;;2.83;;
21955;SDS011;11142;49.930;8.606;2024-03-23T10:38:00;4.15;;;1.73;;
21955;SDS011;11142;49.930;8.606;2024-03-23T10:40:27;3.28;;;1.23;;
21955;SDS011;11142;49.930;8.606;2024-03-23T10:42:56;6.30;;;1.30;;
21955;SDS011;11142;49.930;8.606;2024-03-23T10:45:23;6.82;;;1.80;;
21955;SDS011;11142;49.930;8.606;2024-03-23T10:47:51;4.93;;;1.67;;
21955;SDS011;11142;49.930;8.606;2024-03-23T10:50:17;4.63;;;1.63;;
21955;SDS011;11142;49.930;8.606;2024-03-23T10:52:46;1.15;;;0.45;;
21955;SDS011;11142;49.930;8.606;2024-03-23T10:55:15;0.77;;;0.60;;
21955;SDS011;11142;49.930;8.606;2024-03-23T10:57:48;1.50;;;0.70;;
21955;SDS011;11142;49.930;8.606;2024-03-23T11:00:17;6.15;;;0.90;;
21955;SDS011;11142;49.930;8.606;2024-03-23T11:02:44;2.97;;;1.00;;
21955;SDS011;11142;49.930;8.606;2024-03-23T11:07:55;5.13;;;1.02;;
21955;SDS011;11142;49.930;8.606;2024-03-23T11:10:30;3.40;;;1.13;;
21955;SDS011;11142;49.930;8.606;2024-03-23T11:13:00;2.42;;;1.10;;
21955;SDS011;11142;49.930;8.606;2024-03-23T11:15:49;6.95;;;2.28;;
21955;SDS011;11142;49.930;8.606;2024-03-23T11:18:20;3.10;;;0.85;;
21955;SDS011;11142;49.930;8.606;2024-03-23T11:20:47;4.55;;;1.50;;
21955;SDS011;11142;49.930;8.606;2024-03-23T11:23:25;4.15;;;1.48;;
21955;SDS011;11142;49.930;8.606;2024-03-23T11:25:53;3.45;;;1.60;;
21955;SDS011;11142;49.930;8.606;2024-03-23T11:28:22;3.60;;;1.52;;
21955;SDS011;11142;49.930;8.606;2024-03-23T11:30:48;11.02;;;2.30;;
21955;SDS011;11142;49.930;8.606;2024-03-23T11:33:15;7.95;;;2.40;;
21955;SDS011;11142;49.930;8.606;2024-03-23T11:35:41;6.80;;;1.90;;
21955;SDS011;11142;49.930;8.606;2024-03-23T11:38:09;5.60;;;1.70;;
21955;SDS011;11142;49.930;8.606;2024-03-23T11:40:37;6.22;;;2.33;;
21955;SDS011;11142;49.930;8.606;2024-03-23T11:43:07;0.65;;;0.65;;
21955;SDS011;11142;49.930;8.606;2024-03-23T11:45:36;2.05;;;0.95;;
21955;SDS011;11142;49.930;8.606;2024-03-23T11:48:06;0.52;;;0.52;;
21955;SDS011;11142;49.930;8.606;2024-03-23T11:50:34;2.58;;;1.10;;
21955;SDS011;11142;49.930;8.606;2024-03-23T11:53:11;2.97;;;1.50;;
21955;SDS011;11142;49.930;8.606;2024-03-23T11:55:48;5.07;;;1.02;;
21955;SDS011;11142;49.930;8.606;2024-03-23T11:58:16;1.60;;;0.82;;
21955;SDS011;11142;49.930;8.606;2024-03-23T12:00:54;2.72;;;0.98;;
21955;SDS011;11142;49.930;8.606;2024-03-23T12:03:23;0.90;;;0.77;;
21955;SDS011;11142;49.930;8.606;2024-03-23T12:05:51;1.98;;;0.75;;
21955;SDS011;11142;49.930;8.606;2024-03-23T12:08:21;1.92;;;0.90;;
21955;SDS011;11142;49.930;8.606;2024-03-23T12:10:49;2.65;;;1.05;;
21955;SDS011;11142;49.930;8.606;2024-03-23T12:13:17;3.97;;;1.00;;
21955;SDS011;11142;49.930;8.606;2024-03-23T12:15:44;4.50;;;1.15;;
21955;SDS011;11142;49.930;8.606;2024-03-23T12:18:13;1.58;;;1.13;;
21955;SDS011;11142;49.930;8.606;2024-03-23T12:20:39;3.95;;;1.20;;
21955;SDS011;11142;49.930;8.606;2024-03-23T12:23:10;4.53;;;1.48;;
21955;SDS011;11142;49.930;8.606;2024-03-23T12:25:40;3.90;;;1.30;;
21955;SDS011;11142;49.930;8.606;2024-03-23T12:28:08;3.90;;;1.25;;
21955;SDS011;11142;49.930;8.606;2024-03-23T12:30:35;4.43;;;1.90;;
21955;SDS011;11142;49.930;8.606;2024-03-23T12:33:03;3.55;;;1.38;;
21955;SDS011;11142;49.930;8.606;2024-03-23T12:35:30;2.95;;;1.48;;
21955;SDS011;11142;49.930;8.606;2024-03-23T12:37:58;4.95;;;1.63;;
21955;SDS011;11142;49.930;8.606;2024-03-23T12:40:25;3.92;;;1.80;;
21955;SDS011;11142;49.930;8.606;2024-03-23T12:42:53;5.05;;;1.58;;
21955;SDS011;11142;49.930;8.606;2024-03-23T12:45:19;1.95;;;1.50;;
21955;SDS011;11142;49.930;8.606;2024-03-23T12:47:46;3.75;;;1.90;;
21955;SDS011;11142;49.930;8.606;2024-03-23T12:50:15;5.28;;;1.70;;
21955;SDS011;11142;49.930;8.606;2024-03-23T12:52:43;6.90;;;2.22;;
21955;SDS011;11142;49.930;8.606;2024-03-23T12:55:09;5.90;;;1.92;;
21955;SDS011;11142;49.930;8.606;2024-03-23T12:57:36;3.47;;;1.52;;
21955;SDS011;11142;49.930;8.606;2024-03-23T13:00:03;6.53;;;2.15;;
21955;SDS011;11142;49.930;8.606;2024-03-23T13:02:32;4.30;;;1.70;;
21955;SDS011;11142;49.930;8.606;2024-03-23T13:05:01;4.82;;;2.05;;
21955;SDS011;11142;49.930;8.606;2024-03-23T13:07:28;7.68;;;2.13;;
21955;SDS011;11142;49.930;8.606;2024-03-23T13:09:55;6.57;;;2.05;;
21955;SDS011;11142;49.930;8.606;2024-03-23T13:12:23;3.58;;;1.73;;
21955;SDS011;11142;49.930;8.606;2024-03-23T13:14:49;7.70;;;2.10;;
21955;SDS011;11142;49.930;8.606;2024-03-23T13:17:16;4.57;;;2.05;;
21955;SDS011;11142;49.930;8.606;2024-03-23T13:19:43;6.15;;;1.90;;
21955;SDS011;11142;49.930;8.606;2024-03-23T13:22:10;1.67;;;1.42;;
21955;SDS011;11142;49.930;8.606;2024-03-23T13:24:38;4.80;;;1.48;;
21955;SDS011;11142;49.930;8.606;2024-03-23T13:27:06;4.88;;;1.63;;
21955;SDS011;11142;49.930;8.606;2024-03-23T13:29:34;3.50;;;0.95;;
21955;SDS011;11142;49.930;8.606;2024-03-23T13:32:03;6.57;;;1.60;;
21955;SDS011;11142;49.930;8.606;2024-03-23T13:34:32;2.05;;;1.45;;
21955;SDS011;11142;49.930;8.606;2024-03-23T13:37:01;7.13;;;1.70;;
21955;SDS011;11142;49.930;8.606;2024-03-23T13:39:29;4.07;;;1.65;;
21955;SDS011;11142;49.930;8.606;2024-03-23T13:41:57;6.43;;;1.95;;
21955;SDS011;11142;49.930;8.606;2024-03-23T13:44:25;7.15;;;2.30;;
21955;SDS011;11142;49.930;8.606;2024-03-23T13:46:52;4.82;;;2.35;;
21955;SDS011;11142;49.930;8.606;2024-03-23T13:49:24;7.30;;;2.42;;
21955;SDS011;11142;49.930;8.606;2024-03-23T13:51:53;6.65;;;2.15;;
21955;SDS011;11142;49.930;8.606;2024-03-23T13:54:20;3.08;;;1.83;;
21955;SDS011;11142;49.930;8.606;2024-03-23T13:56:48;4.22;;;1.80;;
21955;SDS011;11142;49.930;8.606;2024-03-23T13:59:14;6.93;;;2.10;;
21955;SDS011;11142;49.930;8.606;2024-03-23T14:01:44;7.57;;;2.33;;
21955;SDS011;11142;49.930;8.606;2024-03-23T14:04:11;3.72;;;2.10;;
21955;SDS011;11142;49.930;8.606;2024-03-23T14:06:39;5.55;;;1.95;;
21955;SDS011;11142;49.930;8.606;2024-03-23T14:09:05;7.40;;;2.20;;
21955;SDS011;11142;49.930;8.606;2024-03-23T14:11:35;3.17;;;1.92;;
21955;SDS011;11142;49.930;8.606;2024-03-23T14:14:04;7.18;;;2.63;;
21955;SDS011;11142;49.930;8.606;2024-03-23T14:16:31;4.32;;;1.90;;
21955;SDS011;11142;49.930;8.606;2024-03-23T14:18:58;3.45;;;1.90;;
21955;SDS011;11142;49.930;8.606;2024-03-23T14:21:26;3.13;;;1.60;;
21955;SDS011;11142;49.930;8.606;2024-03-23T14:23:53;4.53;;;1.63;;
21955;SDS011;11142;49.930;8.606;2024-03-23T14:26:20;4.20;;;1.30;;
21955;SDS011;11142;49.930;8.606;2024-03-23T14:28:48;2.45;;;1.25;;
21955;SDS011;11142;49.930;8.606;2024-03-23T14:31:18;1.95;;;1.17;;
21955;SDS011;11142;49.930;8.606;2024-03-23T14:33:46;6.22;;;1.30;;
21955;SDS011;11142;49.930;8.606;2024-03-23T14:36:15;2.45;;;1.15;;
21955;SDS011;11142;49.930;8.606;2024-03-23T14:38:42;3.10;;;1.27;;
21955;SDS011;11142;49.930;8.606;2024-03-23T14:41:14;2.95;;;1.40;;
21955;SDS011;11142;49.930;8.606;2024-03-23T14:43:42;4.47;;;1.33;;
21955;SDS011;11142;49.930;8.606;2024-03-23T14:46:10;2.25;;;0.95;;
21955;SDS011;11142;49.930;8.606;2024-03-23T14:48:41;1.90;;;0.93;;
21955;SDS011;11142;49.930;8.606;2024-03-23T14:51:10;1.77;;;0.80;;
21955;SDS011;11142;49.930;8.606;2024-03-23T14:53:38;1.05;;;0.70;;
21955;SDS011;11142;49.930;8.606;2024-03-23T14:56:07;0.68;;;0.40;;
21955;SDS011;11142;49.930;8.606;2024-03-23T14:58:36;2.38;;;0.32;;
21955;SDS011;11142;49.930;8.606;2024-03-23T15:01:03;2.13;;;0.65;;
21955;SDS011;11142;49.930;8.606;2024-03-23T15:03:30;1.38;;;0.50;;
21955;SDS011;11142;49.930;8.606;2024-03-23T15:05:59;2.55;;;0.60;;
21955;SDS011;11142;49.930;8.606;2024-03-23T15:08:27;0.57;;;0.30;;
21955;SDS011;11142;49.930;8.606;2024-03-23T15:10:58;2.15;;;0.40;;
21955;SDS011;11142;49.930;8.606;2024-03-23T15:13:25;0.80;;;0.35;;
21955;SDS011;11142;49.930;8.606;2024-03-23T15:15:52;0.90;;;0.50;;
21955;SDS011;11142;49.930;8.606;2024-03-23T15:18:18;1.80;;;0.60;;
21955;SDS011;11142;49.930;8.606;2024-03-23T15:20:51;1.25;;;0.55;;
21955;SDS011;11142;49.930;8.606;2024-03-23T15:23:18;1.33;;;0.40;;
21955;SDS011;11142;49.930;8.606;2024-03-23T15:25:53;3.97;;;0.85;;
21955;SDS011;11142;49.930;8.606;2024-03-23T15:28:21;1.65;;;0.60;;
21955;SDS011;11142;49.930;8.606;2024-03-23T15:30:48;1.42;;;0.82;;
21955;SDS011;11142;49.930;8.606;2024-03-23T15:33:15;3.42;;;0.65;;
21955;SDS011;11142;49.930;8.606;2024-03-23T15:35:43;0.57;;;0.52;;
21955;SDS011;11142;49.930;8.606;2024-03-23T15:38:10;2.78;;;0.65;;
21955;SDS011;11142;49.930;8.606;2024-03-23T15:40:38;0.77;;;0.45;;
21955;SDS011;11142;49.930;8.606;2024-03-23T15:43:05;1.17;;;0.60;;